This is the latest recevied weather packets stored in our database for station/object KC8ZBC. If no packets are shown the sender has not sent any weather packets the latest 1 day(s).
| Time | Temp. | Humidity | Pressure | Rain* | Wind** | Luminosity | Snow |
|---|---|---|---|---|---|---|---|
| 1777988326 | 10.56° C | 77% | 980.5 hPa | 0 mm | 0.89 m/s, 327° | 276 W/m² | - |
| 1777988024 | 10° C | 78% | 980 hPa | 0 mm | 0.89 m/s, 53° | 121 W/m² | - |
| 1777987719 | 10° C | 78% | 980.2 hPa | 0 mm | 0.45 m/s, 90° | 48 W/m² | - |
| 1777987417 | 10° C | 78% | 980 hPa | 0 mm | 0.89 m/s, 67° | 26 W/m² | - |
| 1777987113 | 10.56° C | 78% | 980.6 hPa | 0 mm | 0 m/s | 7 W/m² | - |
| 1777986811 | 10.56° C | 77% | 979.7 hPa | 0 mm | 0 m/s | 37 W/m² | - |
| 1777986508 | 10.56° C | 77% | 979.6 hPa | 0 mm | 0.89 m/s, 77° | 26 W/m² | - |
| 1777986206 | 10.56° C | 77% | 979.6 hPa | 0 mm | 1.34 m/s, 98° | 23 W/m² | - |
| 1777985903 | 10.56° C | 76% | 979.5 hPa | 0 mm | 0.89 m/s, 51° | 50 W/m² | - |
| 1777985601 | 10.56° C | 75% | 979.5 hPa | 0 mm | 1.34 m/s, 96° | 51 W/m² | - |
| 1777985297 | 11.11° C | 74% | 979.5 hPa | 0 mm | 1.34 m/s, 34° | 57 W/m² | - |
| 1777984994 | 10.56° C | 75% | 979.7 hPa | 0 mm | 0 m/s | 188 W/m² | - |
| 1777984690 | 10.56° C | 75% | 979.5 hPa | 0 mm | 0 m/s | 163 W/m² | - |
| 1777984387 | 10.56° C | 75% | 979.4 hPa | 0 mm | 0 m/s | 83 W/m² | - |
| 1777984083 | 10.56° C | 79% | 979.3 hPa | 0 mm | 2.24 m/s, 97° | 98 W/m² | - |
| 1777983780 | 10.56° C | 82% | 979.1 hPa | 0 mm | 1.79 m/s, 48° | 61 W/m² | - |
| 1777983476 | 10.56° C | 82% | 979.3 hPa | 0 mm | 0 m/s | 51 W/m² | - |
| 1777983174 | 10.56° C | 82% | 979 hPa | 0 mm | 0 m/s | 53 W/m² | - |
| 1777982870 | 10.56° C | 83% | 979.1 hPa | 0 mm | 0 m/s | 78 W/m² | - |
| 1777982566 | 11.11° C | 82% | 979.3 hPa | 0 mm | 3.13 m/s, 55° | 44 W/m² | - |
| 1777982265 | 11.67° C | 83% | 979.1 hPa | 0 mm | 1.34 m/s, 69° | 45 W/m² | - |
| 1777981962 | 12.22° C | 82% | 979 hPa | 0 mm | 0.89 m/s, 36° | 45 W/m² | - |
| 1777981660 | 12.78° C | 82% | 978.8 hPa | 0 mm | 0 m/s | 50 W/m² | - |
| 1777981359 | 12.78° C | 83% | 978.9 hPa | 0 mm | 0 m/s | 44 W/m² | - |
| 1777981053 | 12.78° C | 82% | 978.6 hPa | 0 mm | 0 m/s | 23 W/m² | - |
* Rain latest hour (hover to see other rain measurements)
** Current wind speed in m/s (hover to see current wind gust speed)